Time;durP1;ratioP1;P1;durP2;ratioP2;P2;SDS_P1;SDS_P2;PMS_P1;PMS_P2;Temp;Humidity;BMP_temperature;BMP_pressure;BME280_temperature;BME280_humidity;BME280_pressure;Samples;Min_cycle;Max_cycle;Signal;HPM_P1;HPM_P2
2021/09/01 00:02:17;;;;;;;25.08;14.80;;;13.60;99.90;;;;;;4881401;29;20186;-95
2021/09/01 00:04:43;;;;;;;25.17;14.68;;;13.60;99.90;;;;;;4864607;29;20193;-96
2021/09/01 00:07:09;;;;;;;29.35;15.90;;;;;;;;;;4860994;29;20593;-96
2021/09/01 00:09:37;;;;;;;26.38;16.50;;;13.70;99.90;;;;;;4873796;29;20217;-94
2021/09/01 00:12:04;;;;;;;25.42;14.35;;;13.90;99.90;;;;;;4876135;29;20194;-95
2021/09/01 00:14:30;;;;;;;25.05;15.55;;;14.20;99.90;;;;;;4895126;29;20182;-96
2021/09/01 00:16:55;;;;;;;25.40;16.02;;;13.70;99.90;;;;;;4867546;29;20193;-95
2021/09/01 00:19:24;;;;;;;23.38;14.82;;;13.70;99.90;;;;;;4864340;29;20178;-95
2021/09/01 00:21:49;;;;;;;22.63;14.82;;;13.90;99.90;;;;;;4863812;29;20182;-94
2021/09/01 00:24:18;;;;;;;23.02;15.45;;;;;;;;;;4864019;29;20225;-94
2021/09/01 00:26:45;;;;;;;27.77;15.45;;;13.70;99.90;;;;;;4863774;29;20193;-95
2021/09/01 00:29:10;;;;;;;24.05;15.18;;;14.00;99.90;;;;;;4878342;29;20242;-94
2021/09/01 00:31:37;;;;;;;22.58;15.00;;;13.90;99.90;;;;;;4869974;29;20217;-95
2021/09/01 00:34:03;;;;;;;26.65;15.57;;;13.70;99.90;;;;;;4880322;29;20185;-95
2021/09/01 00:36:29;;;;;;;24.13;14.63;;;12.90;99.90;;;;;;4863586;29;20234;-95
2021/09/01 00:38:55;;;;;;;25.20;14.77;;;;;;;;;;4863927;29;20184;-95
2021/09/01 00:41:25;;;;;;;23.58;15.52;;;13.70;99.90;;;;;;4863923;29;20217;-95
2021/09/01 00:43:59;;;;;;;24.63;15.57;;;13.70;99.90;;;;;;4863709;29;20209;-95
2021/09/01 00:46:25;;;;;;;23.60;14.88;;;13.70;99.90;;;;;;4864287;29;20288;-96
2021/09/01 00:48:52;;;;;;;25.75;15.45;;;11.60;99.90;;;;;;4848296;29;20186;-96
2021/09/01 00:51:19;;;;;;;24.85;14.32;;;13.60;99.90;;;;;;4880603;29;20264;-95
2021/09/01 00:53:48;;;;;;;31.27;14.70;;;14.00;99.90;;;;;;4880165;29;20241;-95
2021/09/01 00:56:20;;;;;;;25.52;15.05;;;13.70;99.90;;;;;;4864052;29;20182;-95
2021/09/01 00:58:47;;;;;;;23.70;13.50;;;13.60;99.90;;;;;;4863717;29;20185;-94
2021/09/01 01:01:16;;;;;;;22.02;13.77;;;13.60;99.90;;;;;;4863660;29;20188;-94
2021/09/01 01:03:45;;;;;;;22.38;13.60;;;11.70;99.90;;;;;;4863323;29;20203;-95
2021/09/01 01:06:11;;;;;;;20.63;14.43;;;13.60;99.90;;;;;;4863627;29;20186;-95
2021/09/01 01:08:37;;;;;;;23.42;13.48;;;;;;;;;;4848510;29;20189;-95
2021/09/01 01:11:03;;;;;;;19.85;13.50;;;13.50;99.90;;;;;;4880310;29;20261;-96
2021/09/01 01:13:29;;;;;;;24.17;14.82;;;13.40;99.90;;;;;;4863815;29;20224;-95
2021/09/01 01:15:58;;;;;;;25.60;14.35;;;13.40;99.90;;;;;;4863562;29;20189;-96
2021/09/01 01:18:25;;;;;;;21.27;13.85;;;13.40;99.90;;;;;;4880811;29;20179;-95
2021/09/01 01:20:52;;;;;;;23.88;14.15;;;13.80;99.90;;;;;;4880023;29;20186;-95
2021/09/01 01:23:18;;;;;;;19.17;13.50;;;13.30;99.90;;;;;;4881710;29;20277;-96
2021/09/01 01:25:45;;;;;;;20.70;13.48;;;13.50;99.90;;;;;;4864467;29;20273;-96
2021/09/01 01:28:10;;;;;;;23.52;14.30;;;13.30;99.90;;;;;;4865850;29;20239;-95
2021/09/01 01:30:38;;;;;;;22.83;14.35;;;13.30;99.90;;;;;;4885372;29;20186;-95
2021/09/01 01:33:04;;;;;;;21.83;14.23;;;13.20;99.90;;;;;;4873267;29;20212;-95
2021/09/01 01:35:34;;;;;;;21.13;13.98;;;13.20;99.90;;;;;;4869260;29;20181;-95
2021/09/01 01:38:04;;;;;;;21.98;13.93;;;13.20;99.90;;;;;;4886199;29;20181;-93
2021/09/01 01:40:30;;;;;;;21.52;12.98;;;13.20;99.90;;;;;;4884170;29;20529;-95
2021/09/01 01:42:57;;;;;;;19.15;13.90;;;13.50;99.90;;;;;;4864584;29;20217;-95
2021/09/01 01:45:29;;;;;;;16.80;12.57;;;13.20;99.90;;;;;;4864563;29;20198;-96
2021/09/01 01:47:55;;;;;;;21.92;13.60;;;13.20;99.90;;;;;;4868902;29;20174;-96
2021/09/01 01:50:23;;;;;;;19.33;12.73;;;12.40;99.90;;;;;;4871810;29;20260;-96
2021/09/01 01:52:49;;;;;;;23.50;14.48;;;13.10;99.90;;;;;;4854018;29;20186;-95
2021/09/01 01:55:15;;;;;;;24.00;14.43;;;;;;;;;;4868507;29;20189;-94
2021/09/01 01:57:40;;;;;;;24.10;14.30;;;13.20;99.90;;;;;;4868991;29;20186;-95
2021/09/01 02:00:07;;;;;;;23.67;14.63;;;13.20;99.90;;;;;;4854140;29;20278;-96
2021/09/01 02:02:33;;;;;;;23.13;14.55;;;13.50;99.90;;;;;;4869768;29;20186;-96
2021/09/01 02:05:02;;;;;;;21.67;13.93;;;;;;;;;;4869387;29;20189;-96
2021/09/01 02:07:28;;;;;;;20.95;14.43;;;13.20;99.90;;;;;;4869726;29;20185;-95
2021/09/01 02:09:54;;;;;;;21.40;13.05;;;13.20;99.90;;;;;;4885291;29;20234;-95
2021/09/01 02:12:21;;;;;;;23.67;15.00;;;13.20;99.90;;;;;;4884818;29;20174;-95
2021/09/01 02:14:47;;;;;;;21.80;14.77;;;13.20;99.90;;;;;;4868811;29;20201;-94
2021/09/01 02:17:13;;;;;;;23.63;15.05;;;13.20;99.90;;;;;;4868952;29;20181;-96
2021/09/01 02:19:39;;;;;;;25.75;14.80;;;13.20;99.90;;;;;;4853398;29;20200;-95
2021/09/01 02:22:05;;;;;;;23.13;15.48;;;13.30;99.90;;;;;;4868482;29;20238;-95
2021/09/01 02:24:31;;;;;;;24.20;14.90;;;;;;;;;;4867546;29;20210;-95
2021/09/01 02:26:59;;;;;;;24.85;14.63;;;13.20;99.90;;;;;;4865959;29;20252;-95
2021/09/01 02:29:24;;;;;;;22.08;14.68;;;13.20;99.90;;;;;;4866021;29;20197;-94
2021/09/01 02:31:51;;;;;;;27.50;15.90;;;;;;;;;;4850404;29;20186;-95
2021/09/01 02:34:16;;;;;;;24.80;15.82;;;13.30;99.90;;;;;;4866143;29;20197;-95
2021/09/01 02:36:42;;;;;;;23.85;15.90;;;13.30;99.90;;;;;;4850748;29;20713;-95
2021/09/01 02:39:08;;;;;;;27.80;16.02;;;13.30;99.90;;;;;;4866069;29;20192;-96
2021/09/01 02:41:33;;;;;;;23.30;15.40;;;13.30;99.90;;;;;;4866356;29;20209;-96
2021/09/01 02:43:59;;;;;;;28.48;15.48;;;;;;;;;;4865764;29;20202;-96
2021/09/01 02:46:25;;;;;;;29.77;15.25;;;13.40;99.90;;;;;;4883861;29;20190;-96
2021/09/01 02:48:51;;;;;;;28.40;16.63;;;;;;;;;;4865771;29;20182;-95
2021/09/01 02:51:17;;;;;;;25.98;15.77;;;13.20;99.90;;;;;;4882646;29;20209;-96
2021/09/01 02:53:43;;;;;;;26.30;15.65;;;;;;;;;;4850679;29;20647;-96
2021/09/01 02:56:09;;;;;;;26.05;16.70;;;13.30;99.90;;;;;;4865586;29;20189;-96
2021/09/01 02:58:34;;;;;;;28.60;16.33;;;13.90;99.90;;;;;;4850569;29;20185;-96
2021/09/01 03:01:00;;;;;;;28.52;15.68;;;14.10;99.90;;;;;;4882064;29;20182;-95
2021/09/01 03:03:26;;;;;;;24.27;14.65;;;;;;;;;;4866497;29;20671;-96
2021/09/01 03:05:52;;;;;;;27.35;16.42;;;13.40;99.90;;;;;;4867471;29;20186;-94
2021/09/01 03:08:29;;;;;;;26.13;15.40;;;13.40;99.90;;;;;;4887344;29;20176;-96
2021/09/01 03:10:55;;;;;;;27.50;15.50;;;13.30;99.90;;;;;;4872877;29;20213;-95
2021/09/01 03:13:21;;;;;;;25.50;15.98;;;;;;;;;;4868439;29;20652;-95
2021/09/01 03:15:49;;;;;;;23.42;16.13;;;13.40;99.90;;;;;;4865512;29;20218;-96
2021/09/01 03:18:17;;;;;;;25.60;15.40;;;13.40;99.90;;;;;;4881691;29;20188;-95
2021/09/01 03:20:43;;;;;;;26.45;15.57;;;13.40;99.90;;;;;;4867508;29;20210;-93
2021/09/01 03:23:12;;;;;;;25.20;16.52;;;13.50;99.90;;;;;;4850418;29;20217;-95
2021/09/01 03:25:38;;;;;;;24.17;15.00;;;13.20;99.90;;;;;;4882664;29;20192;-95
2021/09/01 03:28:04;;;;;;;26.83;15.98;;;13.60;99.90;;;;;;4849417;29;20277;-96
2021/09/01 03:30:30;;;;;;;27.23;15.90;;;13.70;99.90;;;;;;4881789;29;20182;-96
2021/09/01 03:32:57;;;;;;;23.15;14.70;;;13.60;99.90;;;;;;4865444;29;20287;-94
2021/09/01 03:35:23;;;;;;;25.65;15.10;;;12.10;99.90;;;;;;4881541;29;20313;-96
2021/09/01 03:37:54;;;;;;;23.00;14.85;;;13.30;99.90;;;;;;4864993;29;20237;-96
2021/09/01 03:40:20;;;;;;;21.88;14.52;;;13.40;99.90;;;;;;4864935;29;20210;-96
2021/09/01 03:42:46;;;;;;;25.75;14.73;;;13.40;99.90;;;;;;4864450;29;20209;-96
2021/09/01 03:45:12;;;;;;;23.33;15.30;;;;;;;;;;4880861;29;20189;-95
2021/09/01 03:47:38;;;;;;;21.75;14.02;;;13.50;99.90;;;;;;4864408;29;20189;-96
2021/09/01 03:50:06;;;;;;;24.00;14.27;;;13.50;99.90;;;;;;4864096;29;20184;-95
2021/09/01 03:52:32;;;;;;;21.52;13.80;;;13.90;99.90;;;;;;4881059;29;20258;-95
2021/09/01 03:54:58;;;;;;;27.08;13.02;;;;;;;;;;4880938;29;20628;-95
2021/09/01 03:57:24;;;;;;;20.92;13.85;;;13.50;99.90;;;;;;4864798;29;20224;-96
2021/09/01 03:59:54;;;;;;;23.38;14.07;;;13.40;99.90;;;;;;4864595;29;20174;-95
2021/09/01 04:02:23;;;;;;;22.20;13.80;;;13.40;99.90;;;;;;4864230;29;20181;-93
2021/09/01 04:04:48;;;;;;;21.65;14.10;;;13.70;99.90;;;;;;4880896;29;20280;-95
2021/09/01 04:07:14;;;;;;;24.45;15.15;;;;;;;;;;4863958;29;20207;-95
2021/09/01 04:09:43;;;;;;;22.00;14.13;;;13.40;99.90;;;;;;4880529;29;20181;-95
2021/09/01 04:12:08;;;;;;;17.88;12.65;;;13.50;99.90;;;;;;4860063;29;20678;-94
2021/09/01 04:14:34;;;;;;;21.40;13.13;;;13.80;99.90;;;;;;4863003;29;20190;-96
2021/09/01 04:17:00;;;;;;;20.60;13.57;;;;;;;;;;4862835;29;20188;-93
2021/09/01 04:19:29;;;;;;;20.02;13.23;;;13.50;99.90;;;;;;4863018;29;20228;-93
2021/09/01 04:21:56;;;;;;;19.25;13.68;;;13.50;99.90;;;;;;4861636;29;20181;-92
2021/09/01 04:24:24;;;;;;;21.65;13.65;;;13.50;99.90;;;;;;4846914;29;20236;-94
2021/09/01 04:26:50;;;;;;;21.42;14.07;;;13.80;99.90;;;;;;4862853;29;20194;-93
2021/09/01 04:29:16;;;;;;;21.77;14.18;;;13.70;99.90;;;;;;4873288;29;20192;-92
2021/09/01 04:31:42;;;;;;;23.98;13.52;;;13.60;99.90;;;;;;4878772;29;20273;-92
2021/09/01 04:34:08;;;;;;;23.25;14.27;;;12.40;99.90;;;;;;4878850;29;20190;-93
2021/09/01 04:36:36;;;;;;;19.27;13.77;;;13.70;99.90;;;;;;4862312;29;20806;-93
2021/09/01 04:39:02;;;;;;;25.98;14.65;;;13.60;99.90;;;;;;4862646;29;20190;-92
2021/09/01 04:41:28;;;;;;;24.45;15.82;;;13.90;99.90;;;;;;4863047;29;20190;-92
2021/09/01 04:43:57;;;;;;;22.70;14.48;;;13.90;99.90;;;;;;4862828;29;20212;-90
2021/09/01 04:46:23;;;;;;;26.02;13.75;;;13.70;99.90;;;;;;4862977;29;20194;-91
2021/09/01 04:48:48;;;;;;;25.83;14.45;;;13.80;99.90;;;;;;4862603;29;20590;-95
2021/09/01 04:51:15;;;;;;;23.48;14.43;;;;;;;;;;4862765;29;20551;-92
2021/09/01 04:53:41;;;;;;;21.45;14.50;;;13.80;99.90;;;;;;4879622;29;20192;-92
2021/09/01 04:56:07;;;;;;;20.05;14.20;;;;;;;;;;4863030;29;20280;-93
2021/09/01 04:58:33;;;;;;;18.80;12.82;;;13.90;99.90;;;;;;4862289;29;20201;-91
2021/09/01 05:00:59;;;;;;;27.77;17.80;;;;;;;;;;4875547;29;20190;-93
2021/09/01 05:03:27;;;;;;;23.70;13.65;;;13.90;99.90;;;;;;4890793;29;20206;-91
2021/09/01 05:05:53;;;;;;;21.65;13.40;;;14.10;99.90;;;;;;4846776;29;20190;-92
2021/09/01 05:08:19;;;;;;;19.08;13.30;;;;;;;;;;4849873;29;20193;-94
2021/09/01 05:10:45;;;;;;;18.65;12.57;;;14.00;99.90;;;;;;4863830;29;20193;-95
2021/09/01 05:13:18;;;;;;;24.80;14.38;;;14.30;99.90;;;;;;4847680;29;20199;-93
2021/09/01 05:15:46;;;;;;;19.10;12.38;;;13.90;99.90;;;;;;4876836;29;20195;-95
2021/09/01 05:18:14;;;;;;;18.88;11.70;;;13.80;99.90;;;;;;4870821;29;20194;-91
2021/09/01 05:20:40;;;;;;;17.77;12.02;;;;;;;;;;4889456;29;20224;-92
2021/09/01 05:23:08;;;;;;;18.73;12.77;;;14.10;99.90;;;;;;4870271;29;20710;-94
2021/09/01 05:25:58;;;;;;;17.52;10.85;;;14.10;99.90;;;;;;4860362;29;20174;-93
2021/09/01 05:28:28;;;;;;;17.80;11.45;;;14.10;99.90;;;;;;4866807;29;20201;-90
2021/09/01 05:30:55;;;;;;;14.52;9.90;;;14.30;99.90;;;;;;4900523;29;20178;-91
2021/09/01 05:33:21;;;;;;;15.35;9.80;;;14.70;99.90;;;;;;4885457;29;20241;-92
2021/09/01 05:35:50;;;;;;;13.93;9.48;;;14.30;99.90;;;;;;4904004;29;20257;-90
2021/09/01 05:38:20;;;;;;;13.23;8.98;;;14.20;99.90;;;;;;4902746;29;20275;-94
2021/09/01 05:40:47;;;;;;;15.18;8.52;;;14.70;99.90;;;;;;4891288;29;20256;-95
2021/09/01 05:43:20;;;;;;;12.77;8.90;;;14.40;99.90;;;;;;4889620;29;20210;-96
2021/09/01 05:45:48;;;;;;;12.13;8.77;;;13.10;99.90;;;;;;4887476;29;20260;-92
2021/09/01 05:48:14;;;;;;;12.50;7.97;;;13.70;99.90;;;;;;4876858;29;20210;-94
2021/09/01 05:50:42;;;;;;;11.55;8.85;;;14.40;99.90;;;;;;4872905;29;20674;-93
2021/09/01 05:53:09;;;;;;;11.27;8.40;;;14.50;99.90;;;;;;4869800;29;20189;-94
2021/09/01 05:55:41;;;;;;;8.55;7.43;;;14.50;99.90;;;;;;4889117;29;20189;-94
2021/09/01 05:58:15;;;;;;;8.75;7.18;;;14.60;99.90;;;;;;4867781;29;20334;-93
2021/09/01 06:00:42;;;;;;;11.75;8.00;;;14.60;99.90;;;;;;4882252;29;20169;-91
2021/09/01 06:03:18;;;;;;;12.02;6.45;;;14.70;99.90;;;;;;4865679;29;20265;-91
2021/09/01 06:05:46;;;;;;;9.18;7.07;;;14.70;99.90;;;;;;4866387;29;20232;-91
2021/09/01 06:08:13;;;;;;;8.52;6.05;;;14.70;99.90;;;;;;4882871;29;20178;-93
2021/09/01 06:10:39;;;;;;;10.00;6.50;;;14.70;99.90;;;;;;4867391;29;20219;-92
2021/09/01 06:13:11;;;;;;;7.60;6.50;;;14.70;99.90;;;;;;4870268;29;20213;-94
2021/09/01 06:15:40;;;;;;;9.23;5.75;;;14.10;99.90;;;;;;4888278;29;20208;-94
2021/09/01 06:18:09;;;;;;;6.55;4.93;;;14.50;99.90;;;;;;4873881;29;20194;-89
2021/09/01 06:20:36;;;;;;;6.72;5.20;;;16.00;99.90;;;;;;4938895;23;20347;-92
2021/09/01 06:23:03;;;;;;;7.10;5.20;;;15.20;99.90;;;;;;4931870;29;20208;-92
2021/09/01 06:25:29;;;;;;;5.22;4.72;;;15.30;99.90;;;;;;4904214;29;20192;-91
2021/09/01 06:27:55;;;;;;;7.18;4.47;;;14.90;99.90;;;;;;4935934;29;20204;-92
2021/09/01 06:30:21;;;;;;;9.10;5.05;;;14.90;99.90;;;;;;4920314;29;20189;-92
2021/09/01 06:32:47;;;;;;;10.43;5.95;;;14.90;99.90;;;;;;4934724;29;20221;-92
2021/09/01 06:35:13;;;;;;;4.72;3.92;;;;;;;;;;4937495;29;20275;-92
2021/09/01 06:37:39;;;;;;;6.22;4.13;;;15.00;99.90;;;;;;4918811;29;20195;-92
2021/09/01 06:40:10;;;;;;;4.35;3.47;;;12.90;99.90;;;;;;4935610;29;20176;-92
2021/09/01 06:42:36;;;;;;;7.82;3.47;;;15.00;99.90;;;;;;4917166;29;20184;-92
2021/09/01 06:45:06;;;;;;;4.03;3.20;;;15.00;99.90;;;;;;4896511;29;20255;-90
2021/09/01 06:47:50;;;;;;;3.47;2.78;;;15.00;99.90;;;;;;4914296;29;20181;-91
2021/09/01 06:50:18;;;;;;;3.67;2.83;;;15.50;99.90;;;;;;4897312;29;20669;-89
2021/09/01 07:08:28;;;;;;;2.13;1.70;;;15.20;99.90;;;;;;5564894;23;20449;-88
2021/09/01 07:18:51;;;;;;;1.80;1.65;;;15.10;99.90;;;;;;5525790;23;20414;31
2021/09/01 07:21:25;;;;;;;2.72;2.38;;;;;;;;;;4010887;23;21753;-95
2021/09/01 07:23:50;;;;;;;6.90;2.40;;;15.70;99.90;;;;;;4887323;29;20270;-95
2021/09/01 07:26:16;;;;;;;1.70;1.60;;;;;;;;;;4875689;29;20174;-96
2021/09/01 07:28:45;;;;;;;2.22;1.48;;;15.10;99.90;;;;;;4880374;29;20221;-95
2021/09/01 07:31:10;;;;;;;6.25;1.50;;;15.80;99.90;;;;;;4867767;29;20182;-94
2021/09/01 07:33:36;;;;;;;2.40;2.20;;;15.10;99.90;;;;;;4881186;29;20266;-94
2021/09/01 07:36:03;;;;;;;2.67;2.20;;;;;;;;;;4869724;29;20189;-95
2021/09/01 07:38:28;;;;;;;5.95;2.55;;;15.20;99.90;;;;;;4884846;29;20272;-95
2021/09/01 07:40:55;;;;;;;1.20;1.10;;;;;;;;;;4878260;29;20655;-93
2021/09/01 07:43:20;;;;;;;1.20;1.10;;;15.40;99.90;;;;;;4882395;29;20303;-94
2021/09/01 07:45:47;;;;;;;1.20;1.10;;;15.40;99.90;;;;;;4902258;29;20224;-91
2021/09/01 07:48:14;;;;;;;0.70;0.70;;;15.50;99.90;;;;;;4882597;29;20189;-94
2021/09/01 07:50:40;;;;;;;1.40;0.52;;;15.90;99.90;;;;;;4862613;29;20236;-92
2021/09/01 07:53:06;;;;;;;0.68;0.57;;;15.60;99.90;;;;;;4886251;29;20212;-92
2021/09/01 07:55:31;;;;;;;0.40;0.40;;;15.50;99.90;;;;;;4881813;29;20292;-93
2021/09/01 07:57:57;;;;;;;0.40;0.40;;;15.70;99.90;;;;;;4881662;29;20570;-92
2021/09/01 08:00:23;;;;;;;0.55;0.55;;;15.40;99.90;;;;;;4850465;29;20300;-91
2021/09/01 08:02:51;;;;;;;4.60;0.98;;;;;;;;;;4881055;29;20209;-91
2021/09/01 08:05:17;;;;;;;0.93;0.85;;;15.50;99.90;;;;;;4883609;29;20200;-90
2021/09/01 08:07:43;;;;;;;0.60;0.60;;;;;;;;;;4858888;29;20185;-89
2021/09/01 08:10:09;;;;;;;0.55;0.55;;;15.60;99.90;;;;;;4907980;29;20181;-91
2021/09/01 08:12:35;;;;;;;2.90;2.03;;;;;;;;;;4871811;29;20188;-91
2021/09/01 08:15:00;;;;;;;0.60;0.50;;;15.70;99.90;;;;;;4889816;29;20186;-92
2021/09/01 08:17:26;;;;;;;1.08;0.30;;;15.70;99.90;;;;;;4888481;29;20631;-92
2021/09/01 08:19:52;;;;;;;1.38;0.80;;;15.70;99.90;;;;;;4900646;29;20185;-92
2021/09/01 08:22:17;;;;;;;0.73;0.40;;;15.70;99.90;;;;;;4866549;29;20328;-91
2021/09/01 08:24:44;;;;;;;1.30;1.20;;;;;;;;;;4866778;29;20201;-91
2021/09/01 08:27:11;;;;;;;1.08;0.82;;;15.90;99.90;;;;;;4868246;29;20244;-91
2021/09/01 08:29:37;;;;;;;0.57;0.57;;;16.00;99.90;;;;;;4881533;29;20204;-89
2021/09/01 08:32:04;;;;;;;1.15;0.70;;;16.00;99.90;;;;;;4890746;29;20280;-89
2021/09/01 08:34:30;;;;;;;0.40;0.35;;;16.10;99.90;;;;;;4871628;29;20194;-88
2021/09/01 08:36:56;;;;;;;1.92;1.70;;;16.10;99.90;;;;;;4861561;29;20179;-91
2021/09/01 08:39:22;;;;;;;1.35;0.65;;;16.10;99.90;;;;;;4872830;29;20182;-91
2021/09/01 08:41:48;;;;;;;1.13;1.00;;;;;;;;;;4875218;29;20567;-90
2021/09/01 08:44:15;;;;;;;0.75;0.60;;;16.10;99.90;;;;;;4881551;29;20625;-90
2021/09/01 08:46:43;;;;;;;0.63;0.57;;;16.10;99.90;;;;;;4896161;29;20197;-89
2021/09/01 08:49:13;;;;;;;0.88;0.60;;;16.10;99.90;;;;;;4872621;29;20178;-89
2021/09/01 08:51:39;;;;;;;2.00;0.80;;;16.10;99.90;;;;;;4873153;29;20197;-90
2021/09/01 08:54:06;;;;;;;3.47;0.63;;;16.00;99.90;;;;;;4881473;29;20189;-91
2021/09/01 08:56:32;;;;;;;2.33;1.67;;;15.90;99.90;;;;;;4884319;29;20189;-90
2021/09/01 08:58:57;;;;;;;2.35;1.20;;;15.80;99.90;;;;;;4892136;29;20179;-89
2021/09/01 09:01:46;;;;;;;3.45;1.58;;;15.90;99.90;;;;;;4906600;29;20201;-91
2021/09/01 09:04:25;;;;;;;0.70;0.50;;;15.80;99.90;;;;;;4911613;29;20714;-91
2021/09/01 09:07:01;;;;;;;0.80;0.80;;;16.00;99.90;;;;;;4877025;29;20548;-90
2021/09/01 09:09:40;;;;;;;0.40;0.40;;;16.50;99.90;;;;;;4872645;29;20281;-91
2021/09/01 09:12:08;;;;;;;1.00;1.00;;;15.80;99.90;;;;;;4879582;29;20299;-92
2021/09/01 09:14:39;;;;;;;0.52;0.40;;;15.50;99.90;;;;;;4863067;29;20194;-93
2021/09/01 09:17:14;;;;;;;0.40;0.40;;;18.10;99.90;;;;;;4871850;29;20201;-92
2021/09/01 09:20:00;;;;;;;2.45;0.60;;;15.40;99.90;;;;;;4890583;29;20515;-92
2021/09/01 09:22:30;;;;;;;1.35;0.95;;;15.40;99.90;;;;;;4896102;29;20239;-91
2021/09/01 09:25:18;;;;;;;0.57;0.50;;;15.70;99.90;;;;;;4862852;29;20252;-89
2021/09/01 09:27:52;;;;;;;0.85;0.65;;;15.60;99.90;;;;;;4862330;29;20190;-90
2021/09/01 09:30:23;;;;;;;0.65;0.63;;;15.60;99.90;;;;;;4862167;29;20187;-91
2021/09/01 09:33:13;;;;;;;1.02;1.02;;;15.70;99.90;;;;;;4863248;29;20186;-92
2021/09/01 09:36:01;;;;;;;2.38;1.00;;;15.60;99.90;;;;;;4864136;29;20503;-92
2021/09/01 09:38:41;;;;;;;1.02;0.93;;;15.50;99.90;;;;;;4862461;29;20198;-91
2021/09/01 09:41:21;;;;;;;0.60;0.60;;;15.50;99.90;;;;;;4862717;29;20656;-92
2021/09/01 09:43:49;;;;;;;0.80;0.70;;;15.40;99.90;;;;;;4847660;29;20234;-92
2021/09/01 09:46:14;;;;;;;1.52;1.25;;;15.40;99.90;;;;;;4867338;29;20205;-93
2021/09/01 09:48:45;;;;;;;0.90;0.90;;;15.40;99.90;;;;;;4853605;29;20715;-92
2021/09/01 09:51:17;;;;;;;1.80;1.33;;;13.50;99.90;;;;;;4869725;29;20202;-91
2021/09/01 09:53:44;;;;;;;3.05;1.30;;;15.80;99.90;;;;;;4869830;29;20619;-90
2021/09/01 09:56:14;;;;;;;1.42;1.30;;;15.80;99.90;;;;;;4868944;29;20185;-92
2021/09/01 09:58:52;;;;;;;1.35;1.10;;;15.40;99.90;;;;;;4854573;29;20218;-92
2021/09/01 10:01:20;;;;;;;2.28;1.73;;;15.40;99.90;;;;;;4871104;29;20674;-90
2021/09/01 10:03:46;;;;;;;2.40;1.80;;;13.30;99.90;;;;;;4869583;29;20206;-91
2021/09/01 10:06:16;;;;;;;2.60;2.00;;;15.30;99.90;;;;;;4874390;29;20194;-92
2021/09/01 10:08:41;;;;;;;2.78;1.50;;;15.30;99.90;;;;;;4883539;29;20192;-93
2021/09/01 10:11:10;;;;;;;3.30;1.52;;;15.30;99.90;;;;;;4861127;29;20656;-91
2021/09/01 10:13:38;;;;;;;2.80;1.98;;;15.30;99.90;;;;;;4898888;29;20190;-91
2021/09/01 10:16:12;;;;;;;2.83;1.83;;;15.50;99.90;;;;;;4893395;29;20182;-91
2021/09/01 10:18:40;;;;;;;4.88;2.60;;;15.20;99.90;;;;;;4884325;29;20170;-91
2021/09/01 10:21:08;;;;;;;3.40;2.63;;;15.10;99.90;;;;;;4866302;29;20197;-88
2021/09/01 10:23:40;;;;;;;5.45;2.83;;;15.30;99.90;;;;;;4884610;29;20236;-89
2021/09/01 10:26:24;;;;;;;4.72;2.70;;;15.60;99.90;;;;;;4906109;29;20181;-89
2021/09/01 10:28:50;;;;;;;4.20;2.80;;;15.10;99.90;;;;;;4874174;29;20193;-90
2021/09/01 10:31:16;;;;;;;6.60;2.97;;;15.10;99.90;;;;;;4884016;29;20213;-87
2021/09/01 10:33:47;;;;;;;6.03;4.18;;;15.00;99.90;;;;;;4899769;29;20182;-90
2021/09/01 10:36:28;;;;;;;6.43;4.28;;;15.00;99.90;;;;;;4903373;29;20185;-92
2021/09/01 10:38:56;;;;;;;7.97;5.07;;;15.20;99.90;;;;;;4889186;29;20205;-92
2021/09/01 10:41:30;;;;;;;7.85;4.65;;;15.00;99.90;;;;;;4913404;29;20232;-92
2021/09/01 10:43:56;;;;;;;10.10;5.43;;;15.10;99.90;;;;;;4891548;29;20205;-94
2021/09/01 10:46:22;;;;;;;8.90;5.30;;;15.30;99.90;;;;;;4888871;29;20187;-89
2021/09/01 10:49:01;;;;;;;8.15;4.80;;;15.20;99.90;;;;;;4906629;29;20261;-91
2021/09/01 10:51:29;;;;;;;9.55;5.90;;;15.20;99.90;;;;;;4886309;29;20220;-91
2021/09/01 10:54:14;;;;;;;7.07;5.68;;;15.30;99.90;;;;;;4894720;29;20192;-90
2021/09/01 10:56:51;;;;;;;11.15;5.70;;;15.30;99.90;;;;;;4889304;29;20187;-93
2021/09/01 10:59:43;;;;;;;8.63;5.68;;;15.70;99.90;;;;;;4878442;29;20205;-93
2021/09/01 11:02:18;;;;;;;11.95;6.20;;;15.40;99.90;;;;;;4873150;29;20255;-92
2021/09/01 11:04:49;;;;;;;10.57;7.05;;;15.40;99.90;;;;;;4886596;29;20209;-92
2021/09/01 11:07:22;;;;;;;10.88;7.03;;;15.30;99.90;;;;;;4875725;29;20298;-91
2021/09/01 11:09:51;;;;;;;9.88;7.28;;;15.20;99.90;;;;;;4892443;29;20212;-90
2021/09/01 11:12:17;;;;;;;12.13;6.53;;;15.20;99.90;;;;;;4875477;29;20241;-93
2021/09/01 11:14:46;;;;;;;10.90;6.80;;;15.30;99.90;;;;;;4890646;29;20217;-92
2021/09/01 11:17:13;;;;;;;9.48;6.65;;;15.20;99.90;;;;;;4891821;29;20715;-92
2021/09/01 11:19:41;;;;;;;11.25;7.63;;;15.20;99.90;;;;;;4869975;29;20181;-91
2021/09/01 11:22:15;;;;;;;11.90;7.30;;;15.20;99.90;;;;;;4891307;29;20225;-93
2021/09/01 11:24:46;;;;;;;11.57;7.75;;;15.20;99.90;;;;;;4889598;29;20197;-89
2021/09/01 11:27:13;;;;;;;9.77;7.18;;;15.00;99.90;;;;;;4876061;29;20178;-91
2021/09/01 11:29:40;;;;;;;12.60;7.90;;;14.90;99.90;;;;;;4878649;29;20185;-90
2021/09/01 11:32:06;;;;;;;12.73;7.68;;;14.90;99.90;;;;;;4889562;29;20190;-90
2021/09/01 11:34:32;;;;;;;17.70;8.48;;;14.90;99.90;;;;;;4873619;29;20525;-91
2021/09/01 11:36:58;;;;;;;12.60;8.13;;;12.50;99.90;;;;;;4872240;29;20191;-91
2021/09/01 11:39:24;;;;;;;17.48;8.65;;;15.00;99.90;;;;;;4858787;29;20651;-92
2021/09/01 11:42:00;;;;;;;11.40;8.10;;;15.00;99.90;;;;;;4860424;29;20651;-93
2021/09/01 11:44:33;;;;;;;10.48;7.88;;;12.90;99.90;;;;;;4858007;29;20205;-92
2021/09/01 11:46:59;;;;;;;11.25;7.95;;;15.20;99.90;;;;;;4859694;29;20583;-93
2021/09/01 11:49:25;;;;;;;14.57;8.02;;;;;;;;;;4889831;29;20307;-94
2021/09/01 11:51:51;;;;;;;13.10;8.48;;;15.60;99.90;;;;;;4891347;29;20219;-92
2021/09/01 11:54:18;;;;;;;10.98;7.97;;;15.90;99.90;;;;;;4858180;29;20197;-95
2021/09/01 11:56:44;;;;;;;15.75;7.50;;;16.20;99.90;;;;;;4874398;29;20183;-94
2021/09/01 11:59:14;;;;;;;13.73;8.45;;;16.10;99.90;;;;;;4873435;29;20190;-92
2021/09/01 12:01:47;;;;;;;10.32;6.80;;;16.30;99.90;;;;;;4865506;29;20239;-92
2021/09/01 12:04:16;;;;;;;11.35;8.10;;;16.50;99.90;;;;;;4869224;29;21250;-93
2021/09/01 12:06:44;;;;;;;14.07;7.85;;;16.50;99.90;;;;;;4874710;29;20202;-94
2021/09/01 12:09:13;;;;;;;8.80;6.32;;;17.10;99.90;;;;;;4873760;29;20189;-88
2021/09/01 12:12:00;;;;;;;8.40;5.63;;;17.00;99.90;;;;;;4868812;29;20206;-90
2021/09/01 12:14:35;;;;;;;8.57;6.38;;;16.70;99.90;;;;;;4869863;29;20205;-89
2021/09/01 12:17:22;;;;;;;10.63;5.35;;;16.70;99.90;;;;;;4839518;29;20185;-90
2021/09/01 12:19:56;;;;;;;10.25;5.03;;;16.50;99.90;;;;;;4873931;29;20177;-90
2021/09/01 12:22:43;;;;;;;9.18;5.47;;;16.40;99.90;;;;;;4866293;29;20302;-91
2021/09/01 12:25:10;;;;;;;9.82;5.60;;;16.30;99.90;;;;;;4890610;29;20189;-91
2021/09/01 12:27:56;;;;;;;10.95;5.80;;;16.20;99.90;;;;;;4875641;29;20185;-92
2021/09/01 12:30:26;;;;;;;9.02;6.18;;;16.10;99.90;;;;;;4888550;29;20650;-92
2021/09/01 12:33:00;;;;;;;12.25;6.35;;;16.00;99.90;;;;;;4872252;29;20178;-89
2021/09/01 12:35:28;;;;;;;8.45;5.47;;;16.10;99.90;;;;;;4877535;29;20185;-90
2021/09/01 12:38:00;;;;;;;13.05;5.65;;;16.00;99.90;;;;;;4876499;29;20306;-90
2021/09/01 12:40:31;;;;;;;10.40;6.07;;;16.10;99.90;;;;;;4880007;29;20173;-91
2021/09/01 12:43:01;;;;;;;8.90;6.25;;;16.10;99.90;;;;;;4887343;29;20161;-92
2021/09/01 12:45:26;;;;;;;17.35;7.53;;;16.20;99.90;;;;;;4908473;29;20189;-92
2021/09/01 12:48:00;;;;;;;9.40;5.70;;;16.40;99.90;;;;;;4896782;29;20200;-90
2021/09/01 12:50:42;;;;;;;7.90;5.57;;;16.40;99.90;;;;;;4901086;29;20165;-95
2021/09/01 12:53:10;;;;;;;9.85;6.15;;;16.60;99.90;;;;;;4886487;29;20522;-94
2021/09/01 12:55:46;;;;;;;6.60;4.75;;;15.10;99.90;;;;;;4910384;29;20216;-95
2021/09/01 12:58:12;;;;;;;10.00;5.30;;;16.70;99.90;;;;;;4895455;29;20168;-93
2021/09/01 13:00:38;;;;;;;7.47;5.47;;;16.80;99.90;;;;;;4883919;29;20282;-91
2021/09/01 13:03:08;;;;;;;7.20;4.72;;;17.20;99.90;;;;;;4885045;29;20585;-91
2021/09/01 13:05:34;;;;;;;7.68;5.00;;;16.80;99.90;;;;;;4891988;29;20189;-92
2021/09/01 13:08:01;;;;;;;8.73;5.00;;;16.80;99.90;;;;;;4869491;29;20179;-90
2021/09/01 13:10:28;;;;;;;13.38;5.20;;;16.90;99.90;;;;;;4857873;29;20185;-92
2021/09/01 13:12:55;;;;;;;8.27;4.85;;;17.00;99.90;;;;;;4875177;29;20223;-95
2021/09/01 13:15:22;;;;;;;10.52;5.47;;;17.10;99.90;;;;;;4876943;29;20190;-93
2021/09/01 13:17:47;;;;;;;9.45;5.32;;;17.10;99.90;;;;;;4866104;29;20196;-90
2021/09/01 13:20:15;;;;;;;13.63;7.05;;;17.10;99.90;;;;;;4859702;29;20262;-91